createdAt,value
2018-03-31T00:00:23.042Z,17.97
2018-03-31T00:02:50.040Z,17.60
2018-03-31T00:05:17.018Z,19.20
2018-03-31T00:07:43.982Z,17.73
2018-03-31T00:10:10.962Z,18.13
2018-03-31T00:12:38.690Z,16.80
2018-03-31T00:15:05.664Z,17.30
2018-03-31T00:17:34.413Z,18.70
2018-03-31T00:20:01.378Z,17.23
2018-03-31T00:22:29.306Z,17.83
2018-03-31T00:24:56.271Z,17.83
2018-03-31T00:27:23.251Z,17.43
2018-03-31T00:29:51.205Z,18.63
2018-03-31T00:32:18.190Z,18.97
2018-03-31T00:34:46.070Z,18.07
2018-03-31T00:37:34.468Z,17.90
2018-03-31T00:40:02.212Z,20.33
2018-03-31T00:42:42.274Z,16.47
2018-03-31T00:45:09.236Z,17.50
2018-03-31T00:47:36.984Z,18.80
2018-03-31T00:50:14.643Z,16.80
2018-03-31T00:52:41.634Z,20.63
2018-03-31T00:55:08.610Z,21.43
2018-03-31T00:57:35.576Z,17.80
2018-03-31T01:00:02.565Z,17.07
2018-03-31T01:02:33.159Z,18.00
2018-03-31T01:05:00.119Z,16.87
2018-03-31T01:07:41.203Z,18.47
2018-03-31T01:10:08.167Z,18.03
2018-03-31T01:15:53.460Z,18.10
2018-03-31T01:18:20.434Z,18.53
2018-03-31T01:20:47.419Z,18.20
2018-03-31T01:23:14.383Z,19.97
2018-03-31T01:25:41.359Z,21.90
2018-03-31T01:28:24.203Z,17.97
2018-03-31T01:30:51.171Z,17.20
2018-03-31T01:33:18.126Z,19.90
2018-03-31T01:35:47.015Z,20.40
2018-03-31T01:38:13.981Z,20.63
2018-03-31T01:40:40.963Z,19.97
2018-03-31T01:43:07.927Z,20.30
2018-03-31T01:45:54.684Z,19.00
2018-03-31T01:48:21.651Z,20.13
2018-03-31T01:50:48.631Z,18.50
2018-03-31T01:59:05.995Z,22.03
2018-03-31T02:01:34.877Z,22.60
2018-03-31T02:04:02.851Z,24.63
2018-03-31T02:09:35.859Z,24.70
2018-03-31T02:12:02.870Z,28.57
2018-03-31T02:14:30.600Z,27.93
2018-03-31T02:16:57.598Z,30.40
2018-03-31T02:19:24.561Z,29.23
2018-03-31T02:21:52.526Z,30.63
2018-03-31T02:24:20.498Z,30.00
2018-03-31T02:26:48.478Z,34.37
2018-03-31T02:29:15.451Z,30.70
2018-03-31T02:31:42.436Z,31.27
2018-03-31T02:34:09.402Z,33.50
2018-03-31T02:36:36.382Z,32.50
2018-03-31T02:39:03.375Z,35.27
2018-03-31T02:41:30.365Z,32.93
2018-03-31T02:43:57.339Z,37.87
2018-03-31T02:46:24.320Z,37.03
2018-03-31T02:48:51.307Z,36.93
2018-03-31T02:51:18.286Z,35.70
2018-03-31T02:53:46.018Z,35.67
2018-03-31T02:56:12.993Z,32.40
2018-03-31T02:58:40.726Z,34.47
2018-03-31T03:01:07.715Z,35.30
2018-03-31T03:03:35.446Z,33.40
2018-03-31T03:06:02.460Z,35.00
2018-03-31T03:08:29.436Z,36.20
2018-03-31T03:10:56.406Z,35.17
2018-03-31T03:13:24.151Z,36.07
2018-03-31T03:15:51.113Z,37.40
2018-03-31T03:18:18.864Z,39.47
2018-03-31T03:20:45.831Z,37.27
2018-03-31T03:23:13.566Z,36.87
2018-03-31T03:25:40.538Z,37.43
2018-03-31T03:28:08.279Z,37.10
2018-03-31T03:30:35.251Z,39.20
2018-03-31T03:33:02.227Z,39.00
2018-03-31T03:35:29.195Z,39.07
2018-03-31T03:37:56.195Z,39.13
2018-03-31T03:40:23.162Z,38.47
2018-03-31T03:42:50.146Z,40.43
2018-03-31T03:45:17.144Z,39.00
2018-03-31T03:47:44.110Z,38.83
2018-03-31T03:50:11.089Z,39.93
2018-03-31T03:52:38.079Z,39.40
2018-03-31T03:55:05.036Z,37.80
2018-03-31T03:57:32.009Z,39.67
2018-03-31T03:59:58.978Z,50.03
2018-03-31T04:02:26.718Z,43.23
2018-03-31T04:04:53.694Z,48.17
2018-03-31T04:07:21.442Z,44.27
2018-03-31T04:09:48.410Z,37.50
2018-03-31T04:12:16.163Z,38.70
2018-03-31T04:14:43.905Z,39.60
2018-03-31T04:17:10.882Z,42.47
2018-03-31T04:19:38.614Z,41.87
2018-03-31T04:22:05.595Z,40.43
2018-03-31T04:24:33.327Z,47.03
2018-03-31T04:27:00.307Z,48.30
2018-03-31T04:29:28.048Z,43.63
2018-03-31T04:31:55.019Z,40.27
2018-03-31T04:34:22.023Z,51.53
2018-03-31T04:36:48.999Z,52.20
2018-03-31T04:39:16.739Z,47.73
2018-03-31T04:41:43.718Z,53.90
2018-03-31T04:44:10.683Z,53.87
2018-03-31T04:46:37.667Z,51.03
2018-03-31T04:49:04.638Z,45.17
2018-03-31T04:51:32.377Z,49.10
2018-03-31T04:53:59.355Z,59.63
2018-03-31T04:56:27.095Z,62.43
2018-03-31T04:58:54.095Z,70.70
2018-03-31T05:01:21.059Z,55.00
2018-03-31T05:03:48.046Z,53.37
2018-03-31T05:06:15.790Z,51.13
2018-03-31T05:08:42.787Z,45.40
2018-03-31T05:11:09.754Z,50.20
2018-03-31T05:13:36.746Z,48.73
2018-03-31T05:16:03.708Z,48.37
2018-03-31T05:18:31.459Z,44.63
2018-03-31T05:20:58.431Z,39.17
2018-03-31T05:23:25.418Z,41.90
2018-03-31T05:25:52.390Z,29.30
2018-03-31T05:28:20.143Z,28.97
2018-03-31T05:30:47.114Z,27.87
2018-03-31T05:33:14.854Z,29.93
2018-03-31T05:35:41.828Z,29.50
2018-03-31T05:38:09.567Z,28.90
2018-03-31T05:40:36.544Z,29.37
2018-03-31T05:43:03.523Z,28.90
2018-03-31T05:45:30.483Z,28.60
2018-03-31T05:47:57.480Z,27.50
2018-03-31T05:50:24.446Z,29.33
2018-03-31T05:52:51.431Z,28.63
2018-03-31T05:55:18.402Z,27.77
2018-03-31T05:57:46.156Z,26.77
2018-03-31T06:00:13.152Z,26.10
2018-03-31T06:02:40.141Z,26.63
2018-03-31T06:05:07.116Z,22.10
2018-03-31T06:07:34.858Z,21.93
2018-03-31T06:10:01.824Z,21.73
2018-03-31T06:12:28.811Z,22.73
2018-03-31T06:14:55.781Z,23.43
2018-03-31T06:17:22.991Z,21.20
2018-03-31T06:19:49.950Z,21.87
2018-03-31T06:22:16.925Z,20.90
2018-03-31T06:24:43.898Z,20.70
2018-03-31T06:27:11.642Z,21.87
2018-03-31T06:29:38.614Z,19.90
2018-03-31T06:32:05.603Z,19.60
2018-03-31T06:34:32.576Z,19.67
2018-03-31T06:36:59.567Z,19.47
2018-03-31T06:39:26.541Z,19.53
2018-03-31T06:41:53.525Z,17.90
2018-03-31T06:44:20.494Z,22.60
2018-03-31T06:46:47.464Z,23.17
2018-03-31T06:49:14.444Z,18.60
2018-03-31T06:51:41.418Z,19.40
2018-03-31T06:54:09.170Z,18.80
2018-03-31T06:56:36.138Z,17.90
2018-03-31T06:59:03.115Z,18.60
2018-03-31T07:01:30.084Z,18.33
2018-03-31T07:03:57.062Z,17.97
2018-03-31T07:06:24.799Z,17.37
2018-03-31T07:08:51.784Z,17.13
2018-03-31T07:11:18.756Z,20.40
2018-03-31T07:13:45.744Z,18.23
2018-03-31T07:16:12.726Z,20.43
2018-03-31T07:18:39.707Z,22.17
2018-03-31T07:21:06.687Z,24.70
2018-03-31T07:23:34.427Z,26.20
2018-03-31T07:26:01.394Z,26.07
2018-03-31T07:28:29.145Z,28.70
2018-03-31T07:30:56.106Z,27.53
2018-03-31T07:33:23.855Z,23.67
2018-03-31T07:35:50.830Z,24.10
2018-03-31T07:38:17.819Z,23.30
2018-03-31T07:40:44.819Z,29.63
2018-03-31T07:43:11.780Z,23.30
2018-03-31T07:45:38.770Z,22.60
2018-03-31T07:48:05.755Z,23.87
2018-03-31T07:50:33.496Z,24.57
2018-03-31T07:53:00.476Z,22.83
2018-03-31T07:55:27.446Z,21.77
2018-03-31T07:57:54.428Z,21.97
2018-03-31T08:00:21.397Z,23.60
2018-03-31T08:02:49.143Z,23.43
2018-03-31T08:05:16.112Z,23.50
2018-03-31T08:07:44.851Z,21.40
2018-03-31T08:10:11.830Z,22.23
2018-03-31T08:12:39.571Z,21.57
2018-03-31T08:15:06.544Z,22.30
2018-03-31T08:17:34.286Z,22.90
2018-03-31T08:20:01.245Z,22.60
2018-03-31T08:22:28.213Z,23.03
2018-03-31T08:24:55.418Z,22.63
2018-03-31T08:27:22.415Z,22.53
2018-03-31T08:29:49.394Z,21.40
2018-03-31T08:32:16.371Z,21.67
2018-03-31T08:34:43.338Z,20.60
2018-03-31T08:37:11.070Z,21.30
2018-03-31T08:39:38.059Z,21.43
2018-03-31T08:42:05.022Z,19.97
2018-03-31T08:44:32.007Z,17.80
2018-03-31T08:46:58.975Z,21.00
2018-03-31T08:49:26.723Z,19.00
2018-03-31T08:51:53.702Z,20.40
2018-03-31T08:54:20.679Z,21.73
2018-03-31T08:56:47.650Z,22.17
2018-03-31T08:59:14.630Z,21.73
2018-03-31T09:01:42.369Z,28.97
2018-03-31T09:04:09.346Z,37.10
2018-03-31T09:06:36.322Z,29.50
2018-03-31T09:09:03.299Z,21.83
2018-03-31T09:11:30.262Z,21.07
2018-03-31T09:13:58.002Z,21.30
2018-03-31T09:16:24.967Z,21.47
2018-03-31T09:18:51.945Z,20.97
2018-03-31T09:21:18.925Z,24.33
2018-03-31T09:23:45.903Z,25.00
2018-03-31T09:26:12.879Z,29.10
2018-03-31T09:28:39.859Z,27.03
2018-03-31T09:31:06.831Z,26.77
2018-03-31T09:33:33.808Z,31.07
2018-03-31T09:36:01.543Z,34.60
2018-03-31T09:38:28.522Z,37.00
2018-03-31T09:40:55.491Z,28.00
2018-03-31T09:43:22.462Z,29.60
2018-03-31T09:45:49.426Z,28.33
2018-03-31T09:48:16.402Z,24.97
2018-03-31T09:50:44.263Z,21.10
2018-03-31T09:53:12.006Z,21.80
2018-03-31T09:55:38.961Z,23.30
2018-03-31T09:58:06.702Z,21.93
2018-03-31T10:00:35.504Z,22.83
2018-03-31T10:03:02.474Z,21.07
2018-03-31T10:05:29.441Z,23.37
2018-03-31T10:07:56.415Z,20.87
2018-03-31T10:10:23.379Z,19.43
2018-03-31T10:12:50.339Z,20.30
2018-03-31T10:15:18.083Z,21.67
2018-03-31T10:17:45.051Z,19.80
2018-03-31T10:20:12.791Z,20.00
2018-03-31T10:22:39.753Z,20.50
2018-03-31T10:25:07.499Z,20.40
2018-03-31T10:27:34.458Z,20.37
2018-03-31T10:30:02.275Z,18.43
2018-03-31T10:32:29.243Z,19.13
2018-03-31T10:34:56.211Z,18.23
2018-03-31T10:37:23.183Z,17.60
2018-03-31T10:39:50.159Z,24.20
2018-03-31T10:42:17.131Z,20.20
2018-03-31T10:44:44.099Z,18.70
2018-03-31T10:47:11.831Z,18.60
2018-03-31T10:49:38.810Z,17.83
2018-03-31T10:52:06.570Z,20.00
2018-03-31T10:54:33.543Z,18.37
2018-03-31T10:57:01.387Z,20.53
2018-03-31T10:59:29.131Z,20.63
2018-03-31T11:01:56.119Z,25.13
2018-03-31T11:04:23.100Z,22.80
2018-03-31T11:06:50.067Z,19.53
2018-03-31T11:09:17.038Z,16.40
2018-03-31T11:11:44.767Z,14.70
2018-03-31T11:14:11.746Z,14.77
2018-03-31T11:16:39.471Z,14.10
2018-03-31T11:19:06.483Z,14.17
2018-03-31T11:21:33.466Z,14.80
2018-03-31T11:24:00.448Z,15.07
2018-03-31T11:26:28.183Z,15.00
2018-03-31T11:28:55.161Z,15.57
2018-03-31T11:31:22.891Z,15.70
2018-03-31T11:33:49.889Z,17.00
2018-03-31T11:36:16.858Z,19.10
2018-03-31T11:38:43.834Z,23.33
2018-03-31T11:41:10.819Z,18.50
2018-03-31T11:43:37.819Z,18.40
2018-03-31T11:46:04.796Z,14.50
2018-03-31T11:48:32.543Z,15.40
2018-03-31T11:50:59.514Z,13.63
2018-03-31T11:53:27.263Z,14.70
2018-03-31T11:55:55.000Z,15.27
2018-03-31T11:58:21.983Z,14.43
2018-03-31T12:00:49.769Z,13.83
2018-03-31T12:03:16.697Z,14.83
2018-03-31T12:05:43.684Z,13.93
2018-03-31T12:08:10.664Z,13.60
2018-03-31T12:10:37.638Z,13.83
2018-03-31T12:13:04.602Z,14.10
2018-03-31T12:15:31.583Z,14.83
2018-03-31T12:17:58.547Z,13.60
2018-03-31T12:20:25.527Z,14.50
2018-03-31T12:22:52.490Z,13.80
2018-03-31T12:25:19.469Z,13.60
2018-03-31T12:27:46.435Z,13.27
2018-03-31T12:30:13.411Z,13.63
2018-03-31T12:32:40.388Z,14.20
2018-03-31T12:35:07.366Z,14.73
2018-03-31T12:37:34.355Z,13.77
2018-03-31T12:40:01.330Z,15.40
2018-03-31T12:42:28.303Z,16.03
2018-03-31T12:44:55.287Z,16.40
2018-03-31T12:47:22.263Z,17.60
2018-03-31T12:49:49.251Z,17.60
2018-03-31T12:52:17.047Z,17.87
2018-03-31T12:54:43.973Z,19.97
2018-03-31T12:57:11.698Z,18.50
2018-03-31T12:59:38.675Z,19.53
2018-03-31T13:02:06.415Z,17.53
2018-03-31T13:04:33.395Z,19.53
2018-03-31T13:07:00.365Z,20.87
2018-03-31T13:09:27.421Z,17.20
2018-03-31T13:11:54.388Z,17.93
2018-03-31T13:14:21.395Z,18.57
2018-03-31T13:16:51.376Z,21.13
2018-03-31T13:19:19.136Z,16.57
2018-03-31T13:21:46.103Z,16.77
2018-03-31T13:24:13.094Z,18.20
2018-03-31T13:26:40.063Z,18.90
2018-03-31T13:29:07.064Z,18.30
2018-03-31T13:31:34.034Z,21.80
2018-03-31T13:34:01.007Z,18.73
2018-03-31T13:36:27.998Z,21.20
2018-03-31T13:38:54.983Z,20.13
2018-03-31T13:41:21.946Z,19.33
2018-03-31T13:43:48.919Z,19.57
2018-03-31T13:46:15.915Z,20.43
2018-03-31T13:48:42.886Z,21.57
2018-03-31T13:51:09.855Z,22.87
2018-03-31T13:53:36.833Z,22.20
2018-03-31T13:56:03.815Z,22.63
2018-03-31T13:58:30.785Z,23.23
2018-03-31T14:00:58.526Z,24.43
2018-03-31T14:03:25.494Z,22.60
2018-03-31T14:05:53.251Z,25.83
2018-03-31T14:08:20.987Z,23.57
2018-03-31T14:10:47.968Z,22.77
2018-03-31T14:13:15.698Z,24.90
2018-03-31T14:15:42.679Z,25.30
2018-03-31T14:18:10.411Z,27.57
2018-03-31T14:20:37.395Z,34.30
2018-03-31T14:23:04.403Z,28.80
2018-03-31T14:25:31.340Z,27.10
2018-03-31T14:27:58.319Z,26.77
2018-03-31T14:30:26.063Z,28.50
2018-03-31T14:32:53.024Z,42.07
2018-03-31T14:35:20.763Z,58.20
2018-03-31T14:37:47.735Z,24.80
2018-03-31T14:40:15.470Z,27.87
2018-03-31T14:42:42.439Z,35.50
2018-03-31T14:45:10.174Z,87.43
2018-03-31T14:47:37.141Z,64.27
2018-03-31T14:50:04.118Z,29.83
2018-03-31T14:52:31.096Z,30.80
2018-03-31T14:54:58.079Z,66.63
2018-03-31T14:57:25.810Z,24.50
2018-03-31T14:59:52.785Z,22.57
2018-03-31T15:02:20.517Z,29.47
2018-03-31T15:04:47.505Z,155.93
2018-03-31T15:07:17.759Z,145.60
2018-03-31T15:09:44.739Z,50.30
2018-03-31T15:12:11.702Z,50.67
2018-03-31T15:14:38.691Z,101.33
2018-03-31T15:17:06.488Z,234.10
2018-03-31T15:19:33.466Z,390.67
2018-03-31T15:22:01.212Z,353.97
2018-03-31T15:24:31.085Z,168.33
2018-03-31T15:26:58.819Z,221.47
2018-03-31T15:29:25.807Z,259.60
2018-03-31T15:31:53.549Z,208.97
2018-03-31T15:34:21.290Z,195.80
2018-03-31T15:36:48.259Z,186.63
2018-03-31T15:39:15.251Z,334.67
2018-03-31T15:41:42.229Z,228.70
2018-03-31T15:44:09.204Z,114.70
2018-03-31T15:46:36.982Z,213.73
2018-03-31T15:49:03.919Z,152.23
2018-03-31T15:51:30.895Z,101.90
2018-03-31T15:53:57.862Z,112.97
2018-03-31T15:56:24.843Z,131.67
2018-03-31T15:58:51.812Z,100.67
2018-03-31T16:01:18.791Z,80.10
2018-03-31T16:03:45.754Z,57.23
2018-03-31T16:06:12.726Z,37.43
2018-03-31T16:08:39.686Z,32.27
2018-03-31T16:11:07.426Z,30.17
2018-03-31T16:13:34.386Z,40.73
2018-03-31T16:16:02.128Z,28.90
2018-03-31T16:18:29.092Z,34.10
2018-03-31T16:20:56.832Z,34.50
2018-03-31T16:23:23.796Z,42.30
2018-03-31T16:31:38.279Z,54.13
2018-03-31T16:34:05.242Z,48.23
2018-03-31T16:36:32.992Z,35.33
2018-03-31T16:38:59.954Z,60.53
2018-03-31T16:41:27.695Z,72.70
2018-03-31T16:43:54.658Z,69.50
2018-03-31T16:46:22.407Z,90.87
2018-03-31T16:48:49.377Z,61.13
2018-03-31T16:51:17.119Z,135.27
2018-03-31T16:53:44.087Z,201.73
2018-03-31T16:56:11.069Z,154.40
2018-03-31T16:58:38.039Z,138.70
2018-03-31T17:01:05.026Z,102.63
2018-03-31T17:03:32.002Z,151.43
2018-03-31T17:05:58.980Z,191.37
2018-03-31T17:08:25.947Z,222.57
2018-03-31T17:10:53.717Z,282.50
2018-03-31T17:13:20.663Z,383.50
2018-03-31T17:15:48.407Z,420.10
2018-03-31T17:18:15.381Z,536.83
2018-03-31T17:20:42.753Z,231.97
2018-03-31T17:23:09.710Z,289.07
2018-03-31T17:25:36.691Z,254.83
2018-03-31T17:28:03.661Z,172.03
2018-03-31T17:30:31.415Z,230.10
2018-03-31T17:32:58.405Z,241.67
2018-03-31T17:35:25.387Z,223.20
2018-03-31T17:37:52.359Z,129.02
2018-03-31T17:40:20.119Z,183.80
2018-03-31T17:42:47.076Z,291.63
2018-03-31T17:45:14.822Z,179.43
2018-03-31T17:47:41.791Z,274.50
2018-03-31T17:50:09.539Z,393.30
2018-03-31T17:52:37.282Z,298.23
2018-03-31T17:55:04.258Z,289.00
2018-03-31T17:57:31.247Z,146.87
2018-03-31T17:59:58.219Z,115.77
2018-03-31T18:02:25.194Z,82.50
2018-03-31T18:04:52.176Z,86.72
2018-03-31T18:07:19.156Z,85.38
2018-03-31T18:09:46.123Z,61.03
2018-03-31T18:12:13.868Z,56.03
2018-03-31T18:14:40.844Z,78.93
2018-03-31T18:17:07.832Z,92.13
2018-03-31T18:19:34.800Z,73.63
2018-03-31T18:22:01.785Z,108.50
2018-03-31T18:24:28.755Z,97.00
2018-03-31T18:26:55.727Z,99.03
2018-03-31T18:29:22.699Z,102.73
2018-03-31T18:31:49.676Z,80.30
2018-03-31T18:34:16.638Z,75.40
2018-03-31T18:36:43.623Z,86.67
2018-03-31T18:39:10.592Z,97.17
2018-03-31T18:41:38.339Z,90.87
2018-03-31T18:44:05.310Z,154.13
2018-03-31T18:46:33.062Z,444.37
2018-03-31T18:49:00.032Z,482.87
2018-03-31T18:51:27.086Z,761.80
2018-03-31T18:53:53.999Z,270.73
2018-03-31T18:56:21.739Z,310.60
2018-03-31T18:58:48.715Z,281.87
2018-03-31T19:01:16.454Z,119.60
2018-03-31T19:03:43.431Z,350.20
2018-03-31T19:06:11.190Z,285.70
2018-03-31T19:08:38.922Z,303.70
2018-03-31T19:11:05.906Z,309.43
2018-03-31T19:13:33.636Z,121.70
2018-03-31T19:16:00.606Z,70.27
2018-03-31T19:18:28.344Z,100.00
2018-03-31T19:20:55.321Z,97.07
2018-03-31T19:23:23.050Z,75.13
2018-03-31T19:25:50.074Z,64.77
2018-03-31T19:28:17.031Z,68.70
2018-03-31T19:30:49.919Z,55.23
2018-03-31T19:33:16.882Z,47.17
2018-03-31T19:35:49.459Z,39.97
2018-03-31T19:38:16.441Z,48.60
2018-03-31T19:40:43.739Z,49.10
2018-03-31T19:43:10.719Z,48.00
2018-03-31T19:45:38.459Z,45.20
2018-03-31T19:48:05.422Z,50.10
2018-03-31T19:50:33.193Z,60.63
2018-03-31T19:53:00.127Z,51.17
2018-03-31T19:55:27.858Z,63.43
2018-03-31T19:57:54.876Z,64.33
2018-03-31T20:00:22.582Z,65.67
2018-03-31T20:02:49.555Z,75.23
2018-03-31T20:05:17.289Z,68.77
2018-03-31T20:07:44.264Z,53.70
2018-03-31T20:10:11.994Z,75.80
2018-03-31T20:12:38.975Z,56.17
2018-03-31T20:15:06.715Z,42.03
2018-03-31T20:17:33.695Z,32.30
2018-03-31T20:20:00.671Z,33.20
2018-03-31T20:22:27.642Z,33.60
2018-03-31T20:24:54.619Z,38.53
2018-03-31T20:27:22.364Z,34.87
2018-03-31T20:29:49.333Z,35.53
2018-03-31T20:32:16.315Z,35.65
2018-03-31T20:34:43.288Z,33.57
2018-03-31T20:37:10.260Z,37.03
2018-03-31T20:39:38.004Z,42.45
2018-03-31T20:42:04.987Z,41.10
2018-03-31T20:44:31.954Z,44.20
2018-03-31T20:46:58.934Z,45.43
2018-03-31T20:49:25.894Z,46.47
2018-03-31T20:51:52.874Z,44.57
2018-03-31T20:54:19.860Z,47.60
2018-03-31T20:56:46.868Z,47.27
2018-03-31T20:59:13.864Z,44.90
2018-03-31T21:01:41.424Z,49.93
2018-03-31T21:04:08.416Z,49.67
2018-03-31T21:06:35.399Z,70.53
2018-03-31T21:09:02.430Z,55.08
2018-03-31T21:11:29.351Z,80.67
2018-03-31T21:13:56.321Z,92.07
2018-03-31T21:16:23.297Z,75.80
2018-03-31T21:18:50.283Z,71.30
2018-03-31T21:21:17.266Z,129.13
2018-03-31T21:23:44.240Z,87.60
2018-03-31T21:26:12.167Z,89.90
2018-03-31T21:28:39.152Z,119.13
2018-03-31T21:31:06.121Z,94.27
2018-03-31T21:33:33.871Z,70.03
2018-03-31T21:36:01.611Z,78.43
2018-03-31T21:38:28.595Z,86.20
2018-03-31T21:40:56.332Z,95.40
2018-03-31T21:43:23.314Z,154.70
2018-03-31T21:45:50.278Z,218.40
2018-03-31T21:48:17.270Z,149.20
2018-03-31T21:50:44.243Z,150.73
2018-03-31T21:53:11.994Z,151.97
2018-03-31T21:55:38.962Z,79.60
2018-03-31T21:58:05.945Z,77.97
2018-03-31T22:00:32.905Z,83.23
2018-03-31T22:02:59.883Z,181.53
2018-03-31T22:05:27.607Z,94.57
2018-03-31T22:07:54.591Z,270.27
2018-03-31T22:10:22.327Z,232.77
2018-03-31T22:12:49.311Z,394.23
2018-03-31T22:15:22.535Z,256.70
2018-03-31T22:17:49.517Z,326.80
2018-03-31T22:20:16.490Z,1115.83
2018-03-31T22:22:44.239Z,1097.70
2018-03-31T22:25:11.211Z,702.00
2018-03-31T22:27:38.192Z,747.10
2018-03-31T22:30:05.166Z,308.90
2018-03-31T22:32:32.151Z,387.17
2018-03-31T22:34:59.124Z,288.60
2018-03-31T22:37:26.099Z,351.47
2018-03-31T22:39:53.071Z,760.20
2018-03-31T22:42:20.825Z,904.40
2018-03-31T22:44:48.558Z,766.87
2018-03-31T22:47:15.539Z,481.20
2018-03-31T22:49:43.277Z,495.20
2018-03-31T22:52:10.266Z,615.40
2018-03-31T22:54:37.247Z,563.70
2018-03-31T22:57:04.235Z,475.25
2018-03-31T22:59:31.986Z,532.23
2018-03-31T23:01:58.975Z,357.03
2018-03-31T23:04:25.946Z,329.47
2018-03-31T23:06:52.935Z,785.63
2018-03-31T23:09:20.678Z,404.67
2018-03-31T23:11:47.664Z,929.63
2018-03-31T23:14:14.646Z,545.83
2018-03-31T23:16:41.636Z,693.90
2018-03-31T23:19:09.390Z,516.43
2018-03-31T23:21:37.130Z,387.05
2018-03-31T23:24:04.166Z,270.00
2018-03-31T23:26:31.143Z,266.80
2018-03-31T23:28:58.134Z,395.63
2018-03-31T23:31:25.106Z,252.17
2018-03-31T23:33:52.094Z,372.17
2018-03-31T23:36:19.834Z,434.40
2018-03-31T23:38:46.823Z,701.13
2018-03-31T23:41:13.811Z,586.10
2018-03-31T23:43:40.807Z,672.97
2018-03-31T23:46:07.791Z,803.00
2018-03-31T23:48:34.784Z,703.83
2018-03-31T23:51:02.531Z,755.87
2018-03-31T23:53:29.519Z,833.93
2018-03-31T23:55:56.505Z,769.77
2018-03-31T23:58:23.486Z,629.20
